sensor_id;sensor_type;location;lat;lon;timestamp;P1;durP1;ratioP1;P2;durP2;ratioP2
72358;SDS011;60317;48.880;-0.862;2023-07-08T00:00:38;5.75;;;3.20;;
72358;SDS011;60317;48.880;-0.862;2023-07-08T00:03:05;5.35;;;3.40;;
72358;SDS011;60317;48.880;-0.862;2023-07-08T00:05:31;5.63;;;3.08;;
72358;SDS011;60317;48.880;-0.862;2023-07-08T00:07:59;7.47;;;3.33;;
72358;SDS011;60317;48.880;-0.862;2023-07-08T00:10:27;5.40;;;3.20;;
72358;SDS011;60317;48.880;-0.862;2023-07-08T00:12:55;6.25;;;3.17;;
72358;SDS011;60317;48.880;-0.862;2023-07-08T00:15:25;5.75;;;3.20;;
72358;SDS011;60317;48.880;-0.862;2023-07-08T00:17:52;5.55;;;3.20;;
72358;SDS011;60317;48.880;-0.862;2023-07-08T00:20:19;8.52;;;3.40;;
72358;SDS011;60317;48.880;-0.862;2023-07-08T00:22:49;6.50;;;3.03;;
72358;SDS011;60317;48.880;-0.862;2023-07-08T00:25:16;5.20;;;3.00;;
72358;SDS011;60317;48.880;-0.862;2023-07-08T00:27:43;6.13;;;3.13;;
72358;SDS011;60317;48.880;-0.862;2023-07-08T00:30:13;4.60;;;2.88;;
72358;SDS011;60317;48.880;-0.862;2023-07-08T00:32:45;4.88;;;2.90;;
72358;SDS011;60317;48.880;-0.862;2023-07-08T00:35:12;7.03;;;3.10;;
72358;SDS011;60317;48.880;-0.862;2023-07-08T00:37:38;6.22;;;3.42;;
72358;SDS011;60317;48.880;-0.862;2023-07-08T00:40:12;7.38;;;3.60;;
72358;SDS011;60317;48.880;-0.862;2023-07-08T00:42:42;6.30;;;2.80;;
72358;SDS011;60317;48.880;-0.862;2023-07-08T00:45:15;4.38;;;2.92;;
72358;SDS011;60317;48.880;-0.862;2023-07-08T00:47:53;7.53;;;3.25;;
72358;SDS011;60317;48.880;-0.862;2023-07-08T00:50:22;8.60;;;2.85;;
72358;SDS011;60317;48.880;-0.862;2023-07-08T00:52:48;6.60;;;3.35;;
72358;SDS011;60317;48.880;-0.862;2023-07-08T00:55:15;7.55;;;3.17;;
72358;SDS011;60317;48.880;-0.862;2023-07-08T00:57:43;5.95;;;2.90;;
72358;SDS011;60317;48.880;-0.862;2023-07-08T01:00:12;4.47;;;2.85;;
72358;SDS011;60317;48.880;-0.862;2023-07-08T01:02:46;5.20;;;2.47;;
72358;SDS011;60317;48.880;-0.862;2023-07-08T01:05:17;6.90;;;3.10;;
72358;SDS011;60317;48.880;-0.862;2023-07-08T01:07:46;6.68;;;2.97;;
72358;SDS011;60317;48.880;-0.862;2023-07-08T01:10:18;6.30;;;3.42;;
72358;SDS011;60317;48.880;-0.862;2023-07-08T01:12:51;4.47;;;2.88;;
72358;SDS011;60317;48.880;-0.862;2023-07-08T01:15:21;5.07;;;2.90;;
72358;SDS011;60317;48.880;-0.862;2023-07-08T01:17:51;4.60;;;2.50;;
72358;SDS011;60317;48.880;-0.862;2023-07-08T01:20:19;4.85;;;2.65;;
72358;SDS011;60317;48.880;-0.862;2023-07-08T01:22:47;5.38;;;3.08;;
72358;SDS011;60317;48.880;-0.862;2023-07-08T01:25:13;5.25;;;3.17;;
72358;SDS011;60317;48.880;-0.862;2023-07-08T01:27:41;4.57;;;2.80;;
72358;SDS011;60317;48.880;-0.862;2023-07-08T01:30:10;6.22;;;2.85;;
72358;SDS011;60317;48.880;-0.862;2023-07-08T01:32:39;5.22;;;3.00;;
72358;SDS011;60317;48.880;-0.862;2023-07-08T01:35:11;4.45;;;2.53;;
72358;SDS011;60317;48.880;-0.862;2023-07-08T01:37:39;6.85;;;2.85;;
72358;SDS011;60317;48.880;-0.862;2023-07-08T01:40:19;6.85;;;2.90;;
72358;SDS011;60317;48.880;-0.862;2023-07-08T01:42:51;5.05;;;2.88;;
72358;SDS011;60317;48.880;-0.862;2023-07-08T01:45:19;4.38;;;2.80;;
72358;SDS011;60317;48.880;-0.862;2023-07-08T01:47:48;5.05;;;2.80;;
72358;SDS011;60317;48.880;-0.862;2023-07-08T01:50:19;7.45;;;3.13;;
72358;SDS011;60317;48.880;-0.862;2023-07-08T01:52:46;4.43;;;2.65;;
72358;SDS011;60317;48.880;-0.862;2023-07-08T01:55:14;5.13;;;3.10;;
72358;SDS011;60317;48.880;-0.862;2023-07-08T01:57:42;4.88;;;2.90;;
72358;SDS011;60317;48.880;-0.862;2023-07-08T02:00:09;5.32;;;2.80;;
72358;SDS011;60317;48.880;-0.862;2023-07-08T02:02:36;5.32;;;2.75;;
72358;SDS011;60317;48.880;-0.862;2023-07-08T02:05:03;4.45;;;2.83;;
72358;SDS011;60317;48.880;-0.862;2023-07-08T02:07:30;7.25;;;3.53;;
72358;SDS011;60317;48.880;-0.862;2023-07-08T02:09:56;5.00;;;2.85;;
72358;SDS011;60317;48.880;-0.862;2023-07-08T02:12:23;5.78;;;2.83;;
72358;SDS011;60317;48.880;-0.862;2023-07-08T02:14:50;5.43;;;2.80;;
72358;SDS011;60317;48.880;-0.862;2023-07-08T02:17:17;4.78;;;3.03;;
72358;SDS011;60317;48.880;-0.862;2023-07-08T02:19:44;6.00;;;2.83;;
72358;SDS011;60317;48.880;-0.862;2023-07-08T02:22:10;6.60;;;2.70;;
72358;SDS011;60317;48.880;-0.862;2023-07-08T02:24:37;7.03;;;2.75;;
72358;SDS011;60317;48.880;-0.862;2023-07-08T02:27:03;4.63;;;2.85;;
72358;SDS011;60317;48.880;-0.862;2023-07-08T02:29:30;5.93;;;2.75;;
72358;SDS011;60317;48.880;-0.862;2023-07-08T02:31:58;5.22;;;2.45;;
72358;SDS011;60317;48.880;-0.862;2023-07-08T02:34:24;7.07;;;2.70;;
72358;SDS011;60317;48.880;-0.862;2023-07-08T02:36:51;5.00;;;2.53;;
72358;SDS011;60317;48.880;-0.862;2023-07-08T02:39:17;5.38;;;2.80;;
72358;SDS011;60317;48.880;-0.862;2023-07-08T02:41:44;5.75;;;2.83;;
72358;SDS011;60317;48.880;-0.862;2023-07-08T02:44:10;6.50;;;2.83;;
72358;SDS011;60317;48.880;-0.862;2023-07-08T02:46:37;5.43;;;2.53;;
72358;SDS011;60317;48.880;-0.862;2023-07-08T02:49:05;6.35;;;2.85;;
72358;SDS011;60317;48.880;-0.862;2023-07-08T02:51:31;3.38;;;2.28;;
72358;SDS011;60317;48.880;-0.862;2023-07-08T02:53:58;6.15;;;2.47;;
72358;SDS011;60317;48.880;-0.862;2023-07-08T02:56:24;5.50;;;2.90;;
72358;SDS011;60317;48.880;-0.862;2023-07-08T02:58:51;7.10;;;2.70;;
72358;SDS011;60317;48.880;-0.862;2023-07-08T03:01:18;6.60;;;2.80;;
72358;SDS011;60317;48.880;-0.862;2023-07-08T03:03:44;4.20;;;2.58;;
72358;SDS011;60317;48.880;-0.862;2023-07-08T03:06:13;5.03;;;2.60;;
72358;SDS011;60317;48.880;-0.862;2023-07-08T03:08:40;6.68;;;2.40;;
72358;SDS011;60317;48.880;-0.862;2023-07-08T03:11:07;4.43;;;2.38;;
72358;SDS011;60317;48.880;-0.862;2023-07-08T03:13:34;4.50;;;2.42;;
72358;SDS011;60317;48.880;-0.862;2023-07-08T03:16:01;4.00;;;2.47;;
72358;SDS011;60317;48.880;-0.862;2023-07-08T03:18:28;4.07;;;2.15;;
72358;SDS011;60317;48.880;-0.862;2023-07-08T03:20:56;3.85;;;2.47;;
72358;SDS011;60317;48.880;-0.862;2023-07-08T03:23:25;3.47;;;2.15;;
72358;SDS011;60317;48.880;-0.862;2023-07-08T03:25:52;5.10;;;2.42;;
72358;SDS011;60317;48.880;-0.862;2023-07-08T03:28:19;7.72;;;2.35;;
72358;SDS011;60317;48.880;-0.862;2023-07-08T03:30:50;3.75;;;2.22;;
72358;SDS011;60317;48.880;-0.862;2023-07-08T03:33:18;3.67;;;2.38;;
72358;SDS011;60317;48.880;-0.862;2023-07-08T03:35:44;3.50;;;2.15;;
72358;SDS011;60317;48.880;-0.862;2023-07-08T03:38:11;10.27;;;3.63;;
72358;SDS011;60317;48.880;-0.862;2023-07-08T03:40:39;5.50;;;2.40;;
72358;SDS011;60317;48.880;-0.862;2023-07-08T03:43:06;3.97;;;2.22;;
72358;SDS011;60317;48.880;-0.862;2023-07-08T03:45:32;4.38;;;2.47;;
72358;SDS011;60317;48.880;-0.862;2023-07-08T03:47:59;3.83;;;2.20;;
72358;SDS011;60317;48.880;-0.862;2023-07-08T03:50:26;8.45;;;2.53;;
72358;SDS011;60317;48.880;-0.862;2023-07-08T03:52:53;6.43;;;2.60;;
72358;SDS011;60317;48.880;-0.862;2023-07-08T03:55:21;3.35;;;2.25;;
72358;SDS011;60317;48.880;-0.862;2023-07-08T03:57:50;4.65;;;2.30;;
72358;SDS011;60317;48.880;-0.862;2023-07-08T04:00:16;3.88;;;2.20;;
72358;SDS011;60317;48.880;-0.862;2023-07-08T04:02:43;5.20;;;2.25;;
72358;SDS011;60317;48.880;-0.862;2023-07-08T04:05:13;5.85;;;2.30;;
72358;SDS011;60317;48.880;-0.862;2023-07-08T04:07:40;4.53;;;2.50;;
72358;SDS011;60317;48.880;-0.862;2023-07-08T04:10:07;5.10;;;2.20;;
72358;SDS011;60317;48.880;-0.862;2023-07-08T04:12:34;4.60;;;2.15;;
72358;SDS011;60317;48.880;-0.862;2023-07-08T04:15:02;3.72;;;1.98;;
72358;SDS011;60317;48.880;-0.862;2023-07-08T04:17:29;4.05;;;2.40;;
72358;SDS011;60317;48.880;-0.862;2023-07-08T04:19:55;4.38;;;2.17;;
72358;SDS011;60317;48.880;-0.862;2023-07-08T04:22:22;5.47;;;2.25;;
72358;SDS011;60317;48.880;-0.862;2023-07-08T04:24:49;2.63;;;1.98;;
72358;SDS011;60317;48.880;-0.862;2023-07-08T04:27:16;4.63;;;2.20;;
72358;SDS011;60317;48.880;-0.862;2023-07-08T04:29:43;4.13;;;2.17;;
72358;SDS011;60317;48.880;-0.862;2023-07-08T04:32:12;5.00;;;2.42;;
72358;SDS011;60317;48.880;-0.862;2023-07-08T04:34:38;3.80;;;2.08;;
72358;SDS011;60317;48.880;-0.862;2023-07-08T04:37:05;6.32;;;2.13;;
72358;SDS011;60317;48.880;-0.862;2023-07-08T04:39:31;4.22;;;2.13;;
72358;SDS011;60317;48.880;-0.862;2023-07-08T04:41:58;5.22;;;2.22;;
72358;SDS011;60317;48.880;-0.862;2023-07-08T04:44:25;3.63;;;2.08;;
72358;SDS011;60317;48.880;-0.862;2023-07-08T04:46:53;5.30;;;2.10;;
72358;SDS011;60317;48.880;-0.862;2023-07-08T04:49:23;3.45;;;1.85;;
72358;SDS011;60317;48.880;-0.862;2023-07-08T04:51:51;3.95;;;2.13;;
72358;SDS011;60317;48.880;-0.862;2023-07-08T04:54:18;5.50;;;1.90;;
72358;SDS011;60317;48.880;-0.862;2023-07-08T04:56:45;5.07;;;2.40;;
72358;SDS011;60317;48.880;-0.862;2023-07-08T04:59:13;4.68;;;2.03;;
72358;SDS011;60317;48.880;-0.862;2023-07-08T05:01:41;5.50;;;2.40;;
72358;SDS011;60317;48.880;-0.862;2023-07-08T05:04:09;4.38;;;2.10;;
72358;SDS011;60317;48.880;-0.862;2023-07-08T05:06:38;4.28;;;2.00;;
72358;SDS011;60317;48.880;-0.862;2023-07-08T05:09:05;4.45;;;2.10;;
72358;SDS011;60317;48.880;-0.862;2023-07-08T05:11:32;4.45;;;2.05;;
72358;SDS011;60317;48.880;-0.862;2023-07-08T05:13:58;4.57;;;2.40;;
72358;SDS011;60317;48.880;-0.862;2023-07-08T05:16:25;5.90;;;2.25;;
72358;SDS011;60317;48.880;-0.862;2023-07-08T05:18:52;5.50;;;2.00;;
72358;SDS011;60317;48.880;-0.862;2023-07-08T05:21:19;2.85;;;2.08;;
72358;SDS011;60317;48.880;-0.862;2023-07-08T05:23:48;7.75;;;2.28;;
72358;SDS011;60317;48.880;-0.862;2023-07-08T05:26:14;4.15;;;2.28;;
72358;SDS011;60317;48.880;-0.862;2023-07-08T05:28:41;3.50;;;2.10;;
72358;SDS011;60317;48.880;-0.862;2023-07-08T05:31:08;3.65;;;2.10;;
72358;SDS011;60317;48.880;-0.862;2023-07-08T05:33:34;5.55;;;2.50;;
72358;SDS011;60317;48.880;-0.862;2023-07-08T05:36:01;5.32;;;2.28;;
72358;SDS011;60317;48.880;-0.862;2023-07-08T05:38:28;4.40;;;2.45;;
72358;SDS011;60317;48.880;-0.862;2023-07-08T05:40:56;6.18;;;2.30;;
72358;SDS011;60317;48.880;-0.862;2023-07-08T05:43:25;9.32;;;2.08;;
72358;SDS011;60317;48.880;-0.862;2023-07-08T05:45:52;2.90;;;1.90;;
72358;SDS011;60317;48.880;-0.862;2023-07-08T05:48:37;4.00;;;2.22;;
72358;SDS011;60317;48.880;-0.862;2023-07-08T05:51:04;5.53;;;2.05;;
72358;SDS011;60317;48.880;-0.862;2023-07-08T05:53:31;5.40;;;2.40;;
72358;SDS011;60317;48.880;-0.862;2023-07-08T05:55:59;5.55;;;2.40;;
72358;SDS011;60317;48.880;-0.862;2023-07-08T05:58:25;4.50;;;2.33;;
72358;SDS011;60317;48.880;-0.862;2023-07-08T06:00:54;5.45;;;2.40;;
72358;SDS011;60317;48.880;-0.862;2023-07-08T06:03:22;4.63;;;2.22;;
72358;SDS011;60317;48.880;-0.862;2023-07-08T06:05:48;4.10;;;2.25;;
72358;SDS011;60317;48.880;-0.862;2023-07-08T06:08:15;4.22;;;2.30;;
72358;SDS011;60317;48.880;-0.862;2023-07-08T06:10:42;3.80;;;2.45;;
72358;SDS011;60317;48.880;-0.862;2023-07-08T06:13:10;5.43;;;2.05;;
72358;SDS011;60317;48.880;-0.862;2023-07-08T06:15:36;3.63;;;2.10;;
72358;SDS011;60317;48.880;-0.862;2023-07-08T06:18:03;4.65;;;2.15;;
72358;SDS011;60317;48.880;-0.862;2023-07-08T06:20:30;4.03;;;2.10;;
72358;SDS011;60317;48.880;-0.862;2023-07-08T06:22:56;4.97;;;2.30;;
72358;SDS011;60317;48.880;-0.862;2023-07-08T06:25:23;4.43;;;2.38;;
72358;SDS011;60317;48.880;-0.862;2023-07-08T06:27:50;6.43;;;2.40;;
72358;SDS011;60317;48.880;-0.862;2023-07-08T06:30:21;5.78;;;2.55;;
72358;SDS011;60317;48.880;-0.862;2023-07-08T06:32:47;4.25;;;2.28;;
72358;SDS011;60317;48.880;-0.862;2023-07-08T06:35:14;5.40;;;2.08;;
72358;SDS011;60317;48.880;-0.862;2023-07-08T06:37:41;3.85;;;2.03;;
72358;SDS011;60317;48.880;-0.862;2023-07-08T06:40:07;4.40;;;2.30;;
72358;SDS011;60317;48.880;-0.862;2023-07-08T06:42:34;4.72;;;2.10;;
72358;SDS011;60317;48.880;-0.862;2023-07-08T06:45:01;5.43;;;2.25;;
72358;SDS011;60317;48.880;-0.862;2023-07-08T06:47:29;4.00;;;2.15;;
72358;SDS011;60317;48.880;-0.862;2023-07-08T06:49:55;4.25;;;2.20;;
72358;SDS011;60317;48.880;-0.862;2023-07-08T06:52:25;3.97;;;2.42;;
72358;SDS011;60317;48.880;-0.862;2023-07-08T06:54:51;5.90;;;2.47;;
72358;SDS011;60317;48.880;-0.862;2023-07-08T06:57:18;5.28;;;2.40;;
72358;SDS011;60317;48.880;-0.862;2023-07-08T06:59:44;6.05;;;2.80;;
72358;SDS011;60317;48.880;-0.862;2023-07-08T07:02:11;6.05;;;2.33;;
72358;SDS011;60317;48.880;-0.862;2023-07-08T07:04:39;4.22;;;2.55;;
72358;SDS011;60317;48.880;-0.862;2023-07-08T07:07:05;4.90;;;2.75;;
72358;SDS011;60317;48.880;-0.862;2023-07-08T07:09:32;4.82;;;2.25;;
72358;SDS011;60317;48.880;-0.862;2023-07-08T07:11:59;5.25;;;2.70;;
72358;SDS011;60317;48.880;-0.862;2023-07-08T07:14:25;4.78;;;2.50;;
72358;SDS011;60317;48.880;-0.862;2023-07-08T07:16:55;5.70;;;2.67;;
72358;SDS011;60317;48.880;-0.862;2023-07-08T07:19:25;6.30;;;2.80;;
72358;SDS011;60317;48.880;-0.862;2023-07-08T07:21:52;6.82;;;2.65;;
72358;SDS011;60317;48.880;-0.862;2023-07-08T07:24:19;4.05;;;2.28;;
72358;SDS011;60317;48.880;-0.862;2023-07-08T07:26:46;4.10;;;2.33;;
72358;SDS011;60317;48.880;-0.862;2023-07-08T07:31:40;5.00;;;2.78;;
72358;SDS011;60317;48.880;-0.862;2023-07-08T07:34:06;4.40;;;2.40;;
72358;SDS011;60317;48.880;-0.862;2023-07-08T07:36:33;4.63;;;2.25;;
72358;SDS011;60317;48.880;-0.862;2023-07-08T07:39:01;5.70;;;2.28;;
72358;SDS011;60317;48.880;-0.862;2023-07-08T07:41:27;6.05;;;2.50;;
72358;SDS011;60317;48.880;-0.862;2023-07-08T07:43:54;4.43;;;2.42;;
72358;SDS011;60317;48.880;-0.862;2023-07-08T07:46:21;5.15;;;2.40;;
72358;SDS011;60317;48.880;-0.862;2023-07-08T07:48:47;4.38;;;2.42;;
72358;SDS011;60317;48.880;-0.862;2023-07-08T07:51:14;5.30;;;2.38;;
72358;SDS011;60317;48.880;-0.862;2023-07-08T07:53:40;3.95;;;2.35;;
72358;SDS011;60317;48.880;-0.862;2023-07-08T07:56:08;4.85;;;2.38;;
72358;SDS011;60317;48.880;-0.862;2023-07-08T07:58:35;3.58;;;2.28;;
72358;SDS011;60317;48.880;-0.862;2023-07-08T08:01:01;5.40;;;2.45;;
72358;SDS011;60317;48.880;-0.862;2023-07-08T08:03:28;6.78;;;2.40;;
72358;SDS011;60317;48.880;-0.862;2023-07-08T08:05:55;4.07;;;2.22;;
72358;SDS011;60317;48.880;-0.862;2023-07-08T08:08:21;4.18;;;2.50;;
72358;SDS011;60317;48.880;-0.862;2023-07-08T08:10:49;4.55;;;2.35;;
72358;SDS011;60317;48.880;-0.862;2023-07-08T08:13:17;3.90;;;2.35;;
72358;SDS011;60317;48.880;-0.862;2023-07-08T08:15:44;4.13;;;2.45;;
72358;SDS011;60317;48.880;-0.862;2023-07-08T08:18:10;5.28;;;2.33;;
72358;SDS011;60317;48.880;-0.862;2023-07-08T08:20:37;4.45;;;2.55;;
72358;SDS011;60317;48.880;-0.862;2023-07-08T08:23:03;5.13;;;2.30;;
72358;SDS011;60317;48.880;-0.862;2023-07-08T08:25:30;4.18;;;2.40;;
72358;SDS011;60317;48.880;-0.862;2023-07-08T08:27:57;5.72;;;2.50;;
72358;SDS011;60317;48.880;-0.862;2023-07-08T08:30:24;3.53;;;2.45;;
72358;SDS011;60317;48.880;-0.862;2023-07-08T08:32:51;3.67;;;2.47;;
72358;SDS011;60317;48.880;-0.862;2023-07-08T08:35:18;5.07;;;2.63;;
72358;SDS011;60317;48.880;-0.862;2023-07-08T08:37:44;4.22;;;2.33;;
72358;SDS011;60317;48.880;-0.862;2023-07-08T08:40:12;5.57;;;2.60;;
72358;SDS011;60317;48.880;-0.862;2023-07-08T08:42:44;4.30;;;2.80;;
72358;SDS011;60317;48.880;-0.862;2023-07-08T08:45:13;6.13;;;2.97;;
72358;SDS011;60317;48.880;-0.862;2023-07-08T08:47:44;5.75;;;2.70;;
72358;SDS011;60317;48.880;-0.862;2023-07-08T08:50:20;5.82;;;2.65;;
72358;SDS011;60317;48.880;-0.862;2023-07-08T08:52:54;5.40;;;2.58;;
72358;SDS011;60317;48.880;-0.862;2023-07-08T08:55:22;5.97;;;2.70;;
72358;SDS011;60317;48.880;-0.862;2023-07-08T08:57:51;4.10;;;2.50;;
72358;SDS011;60317;48.880;-0.862;2023-07-08T09:00:27;4.88;;;2.90;;
72358;SDS011;60317;48.880;-0.862;2023-07-08T09:03:01;4.75;;;2.55;;
72358;SDS011;60317;48.880;-0.862;2023-07-08T09:05:34;4.50;;;2.28;;
72358;SDS011;60317;48.880;-0.862;2023-07-08T09:08:03;4.43;;;2.60;;
72358;SDS011;60317;48.880;-0.862;2023-07-08T09:10:37;4.57;;;2.53;;
72358;SDS011;60317;48.880;-0.862;2023-07-08T09:13:11;3.70;;;2.40;;
72358;SDS011;60317;48.880;-0.862;2023-07-08T09:15:46;5.40;;;2.97;;
72358;SDS011;60317;48.880;-0.862;2023-07-08T09:18:17;4.50;;;2.42;;
72358;SDS011;60317;48.880;-0.862;2023-07-08T09:20:51;4.55;;;2.40;;
72358;SDS011;60317;48.880;-0.862;2023-07-08T09:23:20;4.63;;;2.45;;
72358;SDS011;60317;48.880;-0.862;2023-07-08T09:25:51;5.30;;;2.70;;
72358;SDS011;60317;48.880;-0.862;2023-07-08T09:28:34;3.95;;;2.60;;
72358;SDS011;60317;48.880;-0.862;2023-07-08T09:31:02;5.43;;;2.63;;
72358;SDS011;60317;48.880;-0.862;2023-07-08T09:33:34;4.00;;;2.40;;
72358;SDS011;60317;48.880;-0.862;2023-07-08T09:36:05;6.47;;;2.35;;
72358;SDS011;60317;48.880;-0.862;2023-07-08T09:38:43;4.00;;;2.30;;
72358;SDS011;60317;48.880;-0.862;2023-07-08T09:41:17;4.65;;;2.50;;
72358;SDS011;60317;48.880;-0.862;2023-07-08T09:44:02;4.03;;;2.60;;
72358;SDS011;60317;48.880;-0.862;2023-07-08T09:46:35;6.88;;;2.50;;
72358;SDS011;60317;48.880;-0.862;2023-07-08T09:49:12;6.35;;;2.80;;
72358;SDS011;60317;48.880;-0.862;2023-07-08T09:51:42;5.50;;;2.47;;
72358;SDS011;60317;48.880;-0.862;2023-07-08T09:54:09;8.00;;;2.83;;
72358;SDS011;60317;48.880;-0.862;2023-07-08T09:56:35;6.95;;;2.65;;
72358;SDS011;60317;48.880;-0.862;2023-07-08T09:59:09;5.25;;;2.90;;
72358;SDS011;60317;48.880;-0.862;2023-07-08T10:01:38;3.45;;;2.30;;
72358;SDS011;60317;48.880;-0.862;2023-07-08T10:04:07;6.07;;;2.50;;
72358;SDS011;60317;48.880;-0.862;2023-07-08T10:06:34;3.60;;;2.50;;
72358;SDS011;60317;48.880;-0.862;2023-07-08T10:09:02;5.32;;;2.70;;
72358;SDS011;60317;48.880;-0.862;2023-07-08T10:11:31;4.13;;;2.38;;
72358;SDS011;60317;48.880;-0.862;2023-07-08T10:14:02;3.67;;;2.40;;
72358;SDS011;60317;48.880;-0.862;2023-07-08T10:16:40;4.43;;;2.40;;
72358;SDS011;60317;48.880;-0.862;2023-07-08T10:19:09;6.13;;;2.67;;
72358;SDS011;60317;48.880;-0.862;2023-07-08T10:21:53;5.30;;;2.90;;
72358;SDS011;60317;48.880;-0.862;2023-07-08T10:24:33;5.07;;;2.67;;
72358;SDS011;60317;48.880;-0.862;2023-07-08T10:27:15;4.53;;;2.45;;
72358;SDS011;60317;48.880;-0.862;2023-07-08T10:29:52;4.13;;;2.38;;
72358;SDS011;60317;48.880;-0.862;2023-07-08T10:32:24;5.75;;;2.80;;
72358;SDS011;60317;48.880;-0.862;2023-07-08T10:35:01;3.85;;;2.45;;
72358;SDS011;60317;48.880;-0.862;2023-07-08T10:37:40;4.63;;;2.88;;
72358;SDS011;60317;48.880;-0.862;2023-07-08T10:40:19;5.57;;;2.78;;
72358;SDS011;60317;48.880;-0.862;2023-07-08T10:42:59;4.50;;;2.47;;
72358;SDS011;60317;48.880;-0.862;2023-07-08T10:45:39;5.47;;;2.72;;
72358;SDS011;60317;48.880;-0.862;2023-07-08T10:48:19;4.95;;;2.70;;
72358;SDS011;60317;48.880;-0.862;2023-07-08T10:50:58;4.53;;;2.33;;
72358;SDS011;60317;48.880;-0.862;2023-07-08T10:53:41;3.83;;;2.40;;
72358;SDS011;60317;48.880;-0.862;2023-07-08T10:56:23;6.13;;;2.30;;
72358;SDS011;60317;48.880;-0.862;2023-07-08T10:59:03;4.78;;;2.60;;
72358;SDS011;60317;48.880;-0.862;2023-07-08T11:01:39;4.57;;;2.63;;
72358;SDS011;60317;48.880;-0.862;2023-07-08T11:04:26;3.80;;;2.40;;
72358;SDS011;60317;48.880;-0.862;2023-07-08T11:07:05;3.42;;;2.17;;
72358;SDS011;60317;48.880;-0.862;2023-07-08T11:09:42;4.93;;;2.67;;
72358;SDS011;60317;48.880;-0.862;2023-07-08T11:12:17;4.53;;;2.72;;
72358;SDS011;60317;48.880;-0.862;2023-07-08T11:14:52;5.13;;;2.55;;
72358;SDS011;60317;48.880;-0.862;2023-07-08T11:17:29;3.53;;;2.33;;
72358;SDS011;60317;48.880;-0.862;2023-07-08T11:22:30;3.30;;;2.53;;
72358;SDS011;60317;48.880;-0.862;2023-07-08T11:25:01;4.28;;;2.50;;
72358;SDS011;60317;48.880;-0.862;2023-07-08T11:27:32;4.10;;;2.50;;
72358;SDS011;60317;48.880;-0.862;2023-07-08T11:30:04;3.80;;;2.40;;
72358;SDS011;60317;48.880;-0.862;2023-07-08T11:32:39;5.90;;;2.45;;
72358;SDS011;60317;48.880;-0.862;2023-07-08T11:35:12;5.07;;;2.50;;
72358;SDS011;60317;48.880;-0.862;2023-07-08T11:37:45;3.72;;;2.38;;
72358;SDS011;60317;48.880;-0.862;2023-07-08T11:40:19;3.50;;;2.30;;
72358;SDS011;60317;48.880;-0.862;2023-07-08T11:42:47;4.30;;;2.25;;
72358;SDS011;60317;48.880;-0.862;2023-07-08T11:45:26;5.45;;;2.30;;
72358;SDS011;60317;48.880;-0.862;2023-07-08T11:48:03;3.33;;;2.20;;
72358;SDS011;60317;48.880;-0.862;2023-07-08T11:50:32;3.67;;;2.33;;
72358;SDS011;60317;48.880;-0.862;2023-07-08T11:53:03;3.92;;;2.42;;
72358;SDS011;60317;48.880;-0.862;2023-07-08T11:55:36;4.32;;;2.50;;
72358;SDS011;60317;48.880;-0.862;2023-07-08T11:58:06;4.13;;;2.20;;
72358;SDS011;60317;48.880;-0.862;2023-07-08T12:00:34;3.72;;;2.50;;
72358;SDS011;60317;48.880;-0.862;2023-07-08T12:03:04;4.00;;;2.33;;
72358;SDS011;60317;48.880;-0.862;2023-07-08T12:05:47;4.95;;;2.20;;
72358;SDS011;60317;48.880;-0.862;2023-07-08T12:08:15;4.07;;;2.33;;
72358;SDS011;60317;48.880;-0.862;2023-07-08T12:10:48;4.72;;;1.95;;
72358;SDS011;60317;48.880;-0.862;2023-07-08T12:13:18;3.38;;;2.40;;
72358;SDS011;60317;48.880;-0.862;2023-07-08T12:15:48;4.50;;;2.30;;
72358;SDS011;60317;48.880;-0.862;2023-07-08T12:18:17;4.30;;;2.28;;
72358;SDS011;60317;48.880;-0.862;2023-07-08T12:20:48;5.05;;;2.22;;
72358;SDS011;60317;48.880;-0.862;2023-07-08T12:23:18;2.58;;;2.00;;
72358;SDS011;60317;48.880;-0.862;2023-07-08T12:25:50;4.82;;;2.22;;
72358;SDS011;60317;48.880;-0.862;2023-07-08T12:28:17;3.20;;;2.00;;
72358;SDS011;60317;48.880;-0.862;2023-07-08T12:30:45;4.68;;;2.42;;
72358;SDS011;60317;48.880;-0.862;2023-07-08T12:33:13;4.93;;;2.50;;
72358;SDS011;60317;48.880;-0.862;2023-07-08T12:35:42;4.32;;;2.10;;
72358;SDS011;60317;48.880;-0.862;2023-07-08T12:38:13;3.58;;;2.30;;
72358;SDS011;60317;48.880;-0.862;2023-07-08T12:40:45;3.75;;;1.92;;
72358;SDS011;60317;48.880;-0.862;2023-07-08T12:43:13;3.60;;;2.20;;
72358;SDS011;60317;48.880;-0.862;2023-07-08T12:45:41;2.92;;;2.00;;
72358;SDS011;60317;48.880;-0.862;2023-07-08T12:48:08;3.58;;;2.25;;
72358;SDS011;60317;48.880;-0.862;2023-07-08T12:50:35;3.80;;;2.08;;
72358;SDS011;60317;48.880;-0.862;2023-07-08T12:53:03;3.58;;;2.22;;
72358;SDS011;60317;48.880;-0.862;2023-07-08T12:55:31;2.92;;;2.13;;
72358;SDS011;60317;48.880;-0.862;2023-07-08T12:57:57;3.75;;;2.20;;
72358;SDS011;60317;48.880;-0.862;2023-07-08T13:00:27;2.90;;;2.17;;
72358;SDS011;60317;48.880;-0.862;2023-07-08T13:02:57;3.83;;;2.10;;
72358;SDS011;60317;48.880;-0.862;2023-07-08T13:05:29;3.08;;;1.83;;
72358;SDS011;60317;48.880;-0.862;2023-07-08T13:07:56;3.92;;;2.17;;
72358;SDS011;60317;48.880;-0.862;2023-07-08T13:10:25;3.25;;;2.20;;
72358;SDS011;60317;48.880;-0.862;2023-07-08T13:12:56;5.28;;;2.30;;
72358;SDS011;60317;48.880;-0.862;2023-07-08T13:15:29;3.03;;;2.17;;
72358;SDS011;60317;48.880;-0.862;2023-07-08T13:18:00;3.20;;;2.13;;
72358;SDS011;60317;48.880;-0.862;2023-07-08T13:20:27;3.63;;;1.90;;
72358;SDS011;60317;48.880;-0.862;2023-07-08T13:22:55;2.97;;;2.20;;
72358;SDS011;60317;48.880;-0.862;2023-07-08T13:25:26;2.97;;;2.20;;
72358;SDS011;60317;48.880;-0.862;2023-07-08T13:27:55;3.83;;;2.35;;
72358;SDS011;60317;48.880;-0.862;2023-07-08T13:30:23;3.72;;;2.00;;
72358;SDS011;60317;48.880;-0.862;2023-07-08T13:32:53;4.05;;;2.38;;
72358;SDS011;60317;48.880;-0.862;2023-07-08T13:35:21;3.03;;;1.80;;
72358;SDS011;60317;48.880;-0.862;2023-07-08T13:37:49;3.13;;;2.10;;
72358;SDS011;60317;48.880;-0.862;2023-07-08T13:40:15;3.05;;;2.10;;
72358;SDS011;60317;48.880;-0.862;2023-07-08T13:42:47;4.78;;;2.80;;
72358;SDS011;60317;48.880;-0.862;2023-07-08T13:45:15;4.25;;;2.33;;
72358;SDS011;60317;48.880;-0.862;2023-07-08T13:47:58;4.13;;;2.30;;
72358;SDS011;60317;48.880;-0.862;2023-07-08T13:50:28;3.83;;;2.20;;
72358;SDS011;60317;48.880;-0.862;2023-07-08T13:52:58;3.63;;;2.20;;
72358;SDS011;60317;48.880;-0.862;2023-07-08T13:55:24;4.10;;;2.25;;
72358;SDS011;60317;48.880;-0.862;2023-07-08T13:57:57;3.58;;;2.17;;
72358;SDS011;60317;48.880;-0.862;2023-07-08T14:00:25;3.22;;;2.22;;
72358;SDS011;60317;48.880;-0.862;2023-07-08T14:02:54;3.42;;;2.28;;
72358;SDS011;60317;48.880;-0.862;2023-07-08T14:05:22;3.92;;;2.17;;
72358;SDS011;60317;48.880;-0.862;2023-07-08T14:07:49;4.70;;;1.90;;
72358;SDS011;60317;48.880;-0.862;2023-07-08T14:10:15;3.85;;;2.00;;
72358;SDS011;60317;48.880;-0.862;2023-07-08T14:12:42;3.83;;;2.40;;
72358;SDS011;60317;48.880;-0.862;2023-07-08T14:15:09;3.10;;;2.13;;
72358;SDS011;60317;48.880;-0.862;2023-07-08T14:17:36;3.67;;;2.05;;
72358;SDS011;60317;48.880;-0.862;2023-07-08T14:20:07;3.10;;;1.98;;
72358;SDS011;60317;48.880;-0.862;2023-07-08T14:22:38;3.55;;;2.10;;
72358;SDS011;60317;48.880;-0.862;2023-07-08T14:25:05;5.03;;;2.15;;
72358;SDS011;60317;48.880;-0.862;2023-07-08T14:27:34;2.95;;;2.05;;
72358;SDS011;60317;48.880;-0.862;2023-07-08T14:30:01;3.55;;;2.10;;
72358;SDS011;60317;48.880;-0.862;2023-07-08T14:32:29;4.40;;;2.50;;
72358;SDS011;60317;48.880;-0.862;2023-07-08T14:34:59;3.38;;;2.17;;
72358;SDS011;60317;48.880;-0.862;2023-07-08T14:37:28;5.13;;;2.17;;
72358;SDS011;60317;48.880;-0.862;2023-07-08T14:39:56;3.83;;;2.45;;
72358;SDS011;60317;48.880;-0.862;2023-07-08T14:42:22;3.28;;;1.98;;
72358;SDS011;60317;48.880;-0.862;2023-07-08T14:44:49;3.47;;;2.38;;
72358;SDS011;60317;48.880;-0.862;2023-07-08T14:47:17;5.25;;;2.50;;
72358;SDS011;60317;48.880;-0.862;2023-07-08T14:49:45;4.32;;;2.17;;